sensor_id;sensor_type;location;lat;lon;timestamp;P1;durP1;ratioP1;P2;durP2;ratioP2
18592;SDS011;9426;54.118;17.948;2023-05-07T00:00:08;16.37;;;7.03;;
18592;SDS011;9426;54.118;17.948;2023-05-07T00:05:33;17.80;;;8.40;;
18592;SDS011;9426;54.118;17.948;2023-05-07T00:10:57;19.10;;;8.20;;
18592;SDS011;9426;54.118;17.948;2023-05-07T00:16:20;17.37;;;7.63;;
18592;SDS011;9426;54.118;17.948;2023-05-07T00:21:45;17.13;;;8.00;;
18592;SDS011;9426;54.118;17.948;2023-05-07T00:27:09;15.90;;;7.07;;
18592;SDS011;9426;54.118;17.948;2023-05-07T00:32:32;17.70;;;7.40;;
18592;SDS011;9426;54.118;17.948;2023-05-07T00:37:57;16.90;;;7.33;;
18592;SDS011;9426;54.118;17.948;2023-05-07T00:43:21;16.60;;;6.90;;
18592;SDS011;9426;54.118;17.948;2023-05-07T00:48:45;15.47;;;7.00;;
18592;SDS011;9426;54.118;17.948;2023-05-07T00:54:10;14.60;;;7.63;;
18592;SDS011;9426;54.118;17.948;2023-05-07T00:59:33;16.70;;;6.97;;
18592;SDS011;9426;54.118;17.948;2023-05-07T01:04:57;19.23;;;7.63;;
18592;SDS011;9426;54.118;17.948;2023-05-07T01:10:24;13.17;;;7.37;;
18592;SDS011;9426;54.118;17.948;2023-05-07T01:15:48;13.80;;;7.30;;
18592;SDS011;9426;54.118;17.948;2023-05-07T01:21:12;15.67;;;6.40;;
18592;SDS011;9426;54.118;17.948;2023-05-07T01:26:41;13.53;;;7.50;;
18592;SDS011;9426;54.118;17.948;2023-05-07T01:32:08;18.90;;;7.43;;
18592;SDS011;9426;54.118;17.948;2023-05-07T01:37:32;15.37;;;7.30;;
18592;SDS011;9426;54.118;17.948;2023-05-07T01:42:58;11.87;;;7.20;;
18592;SDS011;9426;54.118;17.948;2023-05-07T01:48:22;14.10;;;6.37;;
18592;SDS011;9426;54.118;17.948;2023-05-07T01:53:47;16.83;;;8.37;;
18592;SDS011;9426;54.118;17.948;2023-05-07T01:59:15;12.30;;;6.80;;
18592;SDS011;9426;54.118;17.948;2023-05-07T02:04:38;14.57;;;7.10;;
18592;SDS011;9426;54.118;17.948;2023-05-07T02:10:03;13.83;;;7.03;;
18592;SDS011;9426;54.118;17.948;2023-05-07T02:15:28;13.97;;;7.23;;
18592;SDS011;9426;54.118;17.948;2023-05-07T02:20:54;14.10;;;6.83;;
18592;SDS011;9426;54.118;17.948;2023-05-07T02:26:18;12.70;;;7.07;;
18592;SDS011;9426;54.118;17.948;2023-05-07T02:31:44;14.37;;;7.30;;
18592;SDS011;9426;54.118;17.948;2023-05-07T02:37:08;13.10;;;7.03;;
18592;SDS011;9426;54.118;17.948;2023-05-07T02:42:32;12.83;;;6.50;;
18592;SDS011;9426;54.118;17.948;2023-05-07T02:47:57;15.57;;;6.57;;
18592;SDS011;9426;54.118;17.948;2023-05-07T02:53:21;13.47;;;6.20;;
18592;SDS011;9426;54.118;17.948;2023-05-07T02:58:47;16.00;;;6.87;;
18592;SDS011;9426;54.118;17.948;2023-05-07T03:04:14;14.63;;;6.80;;
18592;SDS011;9426;54.118;17.948;2023-05-07T03:09:37;12.83;;;6.23;;
18592;SDS011;9426;54.118;17.948;2023-05-07T03:15:01;12.20;;;5.93;;
18592;SDS011;9426;54.118;17.948;2023-05-07T03:20:27;10.37;;;5.93;;
18592;SDS011;9426;54.118;17.948;2023-05-07T03:25:52;13.17;;;6.10;;
18592;SDS011;9426;54.118;17.948;2023-05-07T03:31:15;11.70;;;5.90;;
18592;SDS011;9426;54.118;17.948;2023-05-07T03:36:40;11.27;;;5.50;;
18592;SDS011;9426;54.118;17.948;2023-05-07T03:42:06;15.60;;;6.63;;
18592;SDS011;9426;54.118;17.948;2023-05-07T03:47:31;15.33;;;7.10;;
18592;SDS011;9426;54.118;17.948;2023-05-07T03:52:56;16.33;;;7.27;;
18592;SDS011;9426;54.118;17.948;2023-05-07T03:58:21;17.53;;;7.17;;
18592;SDS011;9426;54.118;17.948;2023-05-07T04:03:47;12.63;;;6.13;;
18592;SDS011;9426;54.118;17.948;2023-05-07T04:09:13;12.27;;;6.53;;
18592;SDS011;9426;54.118;17.948;2023-05-07T04:14:39;12.60;;;6.53;;
18592;SDS011;9426;54.118;17.948;2023-05-07T04:20:03;12.97;;;6.37;;
18592;SDS011;9426;54.118;17.948;2023-05-07T04:25:30;11.40;;;5.90;;
18592;SDS011;9426;54.118;17.948;2023-05-07T04:31:01;12.17;;;5.33;;
18592;SDS011;9426;54.118;17.948;2023-05-07T04:36:29;10.23;;;5.13;;
18592;SDS011;9426;54.118;17.948;2023-05-07T04:42:00;10.67;;;5.27;;
18592;SDS011;9426;54.118;17.948;2023-05-07T04:47:25;14.33;;;5.37;;
18592;SDS011;9426;54.118;17.948;2023-05-07T04:52:49;10.43;;;5.37;;
18592;SDS011;9426;54.118;17.948;2023-05-07T04:58:14;8.60;;;5.10;;
18592;SDS011;9426;54.118;17.948;2023-05-07T05:03:40;10.13;;;4.00;;
18592;SDS011;9426;54.118;17.948;2023-05-07T05:09:04;13.87;;;5.07;;
18592;SDS011;9426;54.118;17.948;2023-05-07T05:14:30;9.00;;;4.60;;
18592;SDS011;9426;54.118;17.948;2023-05-07T05:19:54;9.10;;;4.40;;
18592;SDS011;9426;54.118;17.948;2023-05-07T05:25:18;6.13;;;3.90;;
18592;SDS011;9426;54.118;17.948;2023-05-07T05:30:43;11.43;;;4.10;;
18592;SDS011;9426;54.118;17.948;2023-05-07T05:36:09;10.87;;;4.50;;
18592;SDS011;9426;54.118;17.948;2023-05-07T05:41:33;9.50;;;3.77;;
18592;SDS011;9426;54.118;17.948;2023-05-07T05:46:59;8.87;;;4.13;;
18592;SDS011;9426;54.118;17.948;2023-05-07T05:52:24;8.10;;;3.50;;
18592;SDS011;9426;54.118;17.948;2023-05-07T05:57:49;7.63;;;2.90;;
18592;SDS011;9426;54.118;17.948;2023-05-07T06:03:15;10.17;;;3.37;;
18592;SDS011;9426;54.118;17.948;2023-05-07T06:08:39;5.83;;;3.30;;
18592;SDS011;9426;54.118;17.948;2023-05-07T06:14:06;7.17;;;3.77;;
18592;SDS011;9426;54.118;17.948;2023-05-07T06:19:31;9.00;;;4.00;;
18592;SDS011;9426;54.118;17.948;2023-05-07T06:24:55;13.17;;;5.43;;
18592;SDS011;9426;54.118;17.948;2023-05-07T06:30:19;7.70;;;4.20;;
18592;SDS011;9426;54.118;17.948;2023-05-07T06:35:44;13.47;;;5.80;;
18592;SDS011;9426;54.118;17.948;2023-05-07T06:41:08;8.63;;;3.00;;
18592;SDS011;9426;54.118;17.948;2023-05-07T06:46:33;5.13;;;3.23;;
18592;SDS011;9426;54.118;17.948;2023-05-07T06:51:59;6.43;;;2.97;;
18592;SDS011;9426;54.118;17.948;2023-05-07T06:57:23;4.53;;;2.70;;
18592;SDS011;9426;54.118;17.948;2023-05-07T07:02:47;4.53;;;2.47;;
18592;SDS011;9426;54.118;17.948;2023-05-07T07:08:16;6.10;;;2.70;;
18592;SDS011;9426;54.118;17.948;2023-05-07T07:13:39;4.90;;;2.60;;
18592;SDS011;9426;54.118;17.948;2023-05-07T07:19:04;6.17;;;2.30;;
18592;SDS011;9426;54.118;17.948;2023-05-07T07:24:31;4.60;;;2.80;;
18592;SDS011;9426;54.118;17.948;2023-05-07T07:29:58;3.87;;;2.17;;
18592;SDS011;9426;54.118;17.948;2023-05-07T07:35:25;5.30;;;2.30;;
18592;SDS011;9426;54.118;17.948;2023-05-07T07:40:50;7.90;;;2.17;;
18592;SDS011;9426;54.118;17.948;2023-05-07T07:46:14;3.30;;;1.83;;
18592;SDS011;9426;54.118;17.948;2023-05-07T07:51:38;4.00;;;2.07;;
18592;SDS011;9426;54.118;17.948;2023-05-07T07:57:05;2.80;;;2.10;;
18592;SDS011;9426;54.118;17.948;2023-05-07T08:02:29;5.37;;;1.90;;
18592;SDS011;9426;54.118;17.948;2023-05-07T08:07:53;8.60;;;2.20;;
18592;SDS011;9426;54.118;17.948;2023-05-07T08:13:23;6.30;;;2.00;;
18592;SDS011;9426;54.118;17.948;2023-05-07T08:18:48;4.33;;;1.80;;
18592;SDS011;9426;54.118;17.948;2023-05-07T08:24:11;9.00;;;2.00;;
18592;SDS011;9426;54.118;17.948;2023-05-07T08:29:36;2.30;;;1.60;;
18592;SDS011;9426;54.118;17.948;2023-05-07T08:35:01;7.10;;;1.80;;
18592;SDS011;9426;54.118;17.948;2023-05-07T08:40:25;3.73;;;1.50;;
18592;SDS011;9426;54.118;17.948;2023-05-07T08:45:54;3.10;;;1.60;;
18592;SDS011;9426;54.118;17.948;2023-05-07T08:51:21;2.93;;;1.60;;
18592;SDS011;9426;54.118;17.948;2023-05-07T08:56:46;3.43;;;1.97;;
18592;SDS011;9426;54.118;17.948;2023-05-07T09:02:11;2.10;;;1.67;;
18592;SDS011;9426;54.118;17.948;2023-05-07T09:07:36;27.90;;;3.00;;
18592;SDS011;9426;54.118;17.948;2023-05-07T09:13:00;7.43;;;1.77;;
18592;SDS011;9426;54.118;17.948;2023-05-07T09:18:27;5.93;;;1.70;;
18592;SDS011;9426;54.118;17.948;2023-05-07T09:23:51;7.63;;;3.00;;
18592;SDS011;9426;54.118;17.948;2023-05-07T09:29:22;5.47;;;1.73;;
18592;SDS011;9426;54.118;17.948;2023-05-07T09:34:47;5.37;;;1.80;;
18592;SDS011;9426;54.118;17.948;2023-05-07T09:40:21;5.03;;;1.40;;
18592;SDS011;9426;54.118;17.948;2023-05-07T09:45:47;3.87;;;1.73;;
18592;SDS011;9426;54.118;17.948;2023-05-07T09:51:18;2.57;;;1.53;;
18592;SDS011;9426;54.118;17.948;2023-05-07T09:56:49;26.30;;;1.97;;
18592;SDS011;9426;54.118;17.948;2023-05-07T10:02:17;3.90;;;1.50;;
18592;SDS011;9426;54.118;17.948;2023-05-07T10:07:47;3.10;;;1.53;;
18592;SDS011;9426;54.118;17.948;2023-05-07T10:13:13;6.93;;;1.77;;
18592;SDS011;9426;54.118;17.948;2023-05-07T10:18:41;6.57;;;1.70;;
18592;SDS011;9426;54.118;17.948;2023-05-07T10:24:14;5.07;;;1.70;;
18592;SDS011;9426;54.118;17.948;2023-05-07T10:29:45;6.43;;;1.80;;
18592;SDS011;9426;54.118;17.948;2023-05-07T10:35:17;3.90;;;1.73;;
18592;SDS011;9426;54.118;17.948;2023-05-07T10:40:45;9.50;;;1.73;;
18592;SDS011;9426;54.118;17.948;2023-05-07T10:46:13;3.60;;;1.60;;
18592;SDS011;9426;54.118;17.948;2023-05-07T10:51:44;3.13;;;1.60;;
18592;SDS011;9426;54.118;17.948;2023-05-07T11:03:09;5.33;;;1.73;;
18592;SDS011;9426;54.118;17.948;2023-05-07T11:08:55;3.87;;;1.40;;
18592;SDS011;9426;54.118;17.948;2023-05-07T11:14:44;6.93;;;1.60;;
18592;SDS011;9426;54.118;17.948;2023-05-07T11:20:49;5.53;;;1.60;;
18592;SDS011;9426;54.118;17.948;2023-05-07T11:26:42;4.00;;;1.37;;
18592;SDS011;9426;54.118;17.948;2023-05-07T11:32:09;4.67;;;1.80;;
18592;SDS011;9426;54.118;17.948;2023-05-07T11:37:39;4.83;;;1.30;;
18592;SDS011;9426;54.118;17.948;2023-05-07T11:43:10;7.20;;;1.60;;
18592;SDS011;9426;54.118;17.948;2023-05-07T11:48:35;5.20;;;1.53;;
18592;SDS011;9426;54.118;17.948;2023-05-07T11:53:58;3.85;;;1.42;;
18592;SDS011;9426;54.118;17.948;2023-05-07T11:59:22;3.20;;;1.42;;
18592;SDS011;9426;54.118;17.948;2023-05-07T12:04:47;3.10;;;1.60;;
18592;SDS011;9426;54.118;17.948;2023-05-07T12:10:11;5.57;;;1.60;;
18592;SDS011;9426;54.118;17.948;2023-05-07T12:15:35;2.60;;;1.23;;
18592;SDS011;9426;54.118;17.948;2023-05-07T12:21:02;3.25;;;1.20;;
18592;SDS011;9426;54.118;17.948;2023-05-07T12:26:27;5.10;;;1.50;;
18592;SDS011;9426;54.118;17.948;2023-05-07T12:31:50;4.30;;;1.40;;
18592;SDS011;9426;54.118;17.948;2023-05-07T12:37:15;4.13;;;1.25;;
18592;SDS011;9426;54.118;17.948;2023-05-07T12:42:40;3.83;;;1.50;;
18592;SDS011;9426;54.118;17.948;2023-05-07T12:48:03;2.17;;;1.30;;
18592;SDS011;9426;54.118;17.948;2023-05-07T12:53:29;2.60;;;1.30;;
18592;SDS011;9426;54.118;17.948;2023-05-07T12:58:56;4.60;;;1.40;;
18592;SDS011;9426;54.118;17.948;2023-05-07T13:04:20;4.95;;;1.48;;
18592;SDS011;9426;54.118;17.948;2023-05-07T13:09:48;2.22;;;1.40;;
18592;SDS011;9426;54.118;17.948;2023-05-07T13:15:11;4.93;;;1.80;;
18592;SDS011;9426;54.118;17.948;2023-05-07T13:20:35;9.73;;;1.80;;
18592;SDS011;9426;54.118;17.948;2023-05-07T13:26:00;3.30;;;1.35;;
18592;SDS011;9426;54.118;17.948;2023-05-07T13:31:24;4.38;;;1.20;;
18592;SDS011;9426;54.118;17.948;2023-05-07T13:36:48;6.28;;;1.73;;
18592;SDS011;9426;54.118;17.948;2023-05-07T13:42:13;5.85;;;1.23;;
18592;SDS011;9426;54.118;17.948;2023-05-07T13:47:36;2.95;;;1.42;;
18592;SDS011;9426;54.118;17.948;2023-05-07T13:53:00;4.43;;;1.60;;
18592;SDS011;9426;54.118;17.948;2023-05-07T13:58:25;4.10;;;2.03;;
18592;SDS011;9426;54.118;17.948;2023-05-07T14:03:49;3.17;;;1.50;;
18592;SDS011;9426;54.118;17.948;2023-05-07T14:09:13;2.70;;;1.30;;
18592;SDS011;9426;54.118;17.948;2023-05-07T14:14:39;7.10;;;1.60;;
18592;SDS011;9426;54.118;17.948;2023-05-07T14:20:03;2.67;;;1.63;;
18592;SDS011;9426;54.118;17.948;2023-05-07T14:25:28;3.92;;;1.60;;
18592;SDS011;9426;54.118;17.948;2023-05-07T14:30:54;2.65;;;1.08;;
18592;SDS011;9426;54.118;17.948;2023-05-07T14:36:17;17.23;;;2.03;;
18592;SDS011;9426;54.118;17.948;2023-05-07T14:41:45;6.60;;;1.60;;
18592;SDS011;9426;54.118;17.948;2023-05-07T14:47:10;15.45;;;2.72;;
18592;SDS011;9426;54.118;17.948;2023-05-07T14:52:34;3.30;;;1.67;;
18592;SDS011;9426;54.118;17.948;2023-05-07T14:57:58;2.70;;;1.80;;
18592;SDS011;9426;54.118;17.948;2023-05-07T15:03:25;3.13;;;1.60;;
18592;SDS011;9426;54.118;17.948;2023-05-07T15:08:48;4.43;;;1.85;;
18592;SDS011;9426;54.118;17.948;2023-05-07T15:14:12;3.40;;;2.08;;
18592;SDS011;9426;54.118;17.948;2023-05-07T15:19:38;3.97;;;2.35;;
18592;SDS011;9426;54.118;17.948;2023-05-07T15:25:02;3.80;;;2.13;;
18592;SDS011;9426;54.118;17.948;2023-05-07T15:30:27;3.15;;;1.80;;
18592;SDS011;9426;54.118;17.948;2023-05-07T15:35:52;4.35;;;1.98;;
18592;SDS011;9426;54.118;17.948;2023-05-07T15:41:20;5.43;;;1.88;;
18592;SDS011;9426;54.118;17.948;2023-05-07T15:46:44;8.50;;;2.00;;
18592;SDS011;9426;54.118;17.948;2023-05-07T15:52:09;4.47;;;1.90;;
18592;SDS011;9426;54.118;17.948;2023-05-07T15:57:34;31.23;;;3.55;;
18592;SDS011;9426;54.118;17.948;2023-05-07T16:02:59;5.35;;;2.00;;
18592;SDS011;9426;54.118;17.948;2023-05-07T16:08:24;4.82;;;2.10;;
18592;SDS011;9426;54.118;17.948;2023-05-07T16:13:48;5.55;;;2.20;;
18592;SDS011;9426;54.118;17.948;2023-05-07T16:19:12;10.45;;;2.10;;
18592;SDS011;9426;54.118;17.948;2023-05-07T16:24:37;4.45;;;1.90;;
18592;SDS011;9426;54.118;17.948;2023-05-07T16:30:01;4.57;;;2.03;;
18592;SDS011;9426;54.118;17.948;2023-05-07T16:35:24;7.10;;;2.13;;
18592;SDS011;9426;54.118;17.948;2023-05-07T16:40:49;8.00;;;2.90;;
18592;SDS011;9426;54.118;17.948;2023-05-07T16:46:13;9.15;;;2.90;;
18592;SDS011;9426;54.118;17.948;2023-05-07T16:51:37;6.72;;;3.08;;
18592;SDS011;9426;54.118;17.948;2023-05-07T16:57:05;6.40;;;3.10;;
18592;SDS011;9426;54.118;17.948;2023-05-07T17:02:29;10.43;;;3.47;;
18592;SDS011;9426;54.118;17.948;2023-05-07T17:07:53;9.00;;;3.60;;
18592;SDS011;9426;54.118;17.948;2023-05-07T17:13:19;11.27;;;4.57;;
18592;SDS011;9426;54.118;17.948;2023-05-07T17:18:42;12.37;;;4.00;;
18592;SDS011;9426;54.118;17.948;2023-05-07T17:24:07;10.37;;;3.87;;
18592;SDS011;9426;54.118;17.948;2023-05-07T17:29:33;7.27;;;3.50;;
18592;SDS011;9426;54.118;17.948;2023-05-07T17:34:56;8.90;;;3.60;;
18592;SDS011;9426;54.118;17.948;2023-05-07T17:40:20;8.00;;;3.60;;
18592;SDS011;9426;54.118;17.948;2023-05-07T17:45:45;8.47;;;3.70;;
18592;SDS011;9426;54.118;17.948;2023-05-07T17:51:09;7.03;;;3.17;;
18592;SDS011;9426;54.118;17.948;2023-05-07T17:56:33;16.13;;;4.40;;
18592;SDS011;9426;54.118;17.948;2023-05-07T18:01:58;6.60;;;3.37;;
18592;SDS011;9426;54.118;17.948;2023-05-07T18:07:22;7.23;;;3.50;;
18592;SDS011;9426;54.118;17.948;2023-05-07T18:12:47;34.40;;;15.90;;
18592;SDS011;9426;54.118;17.948;2023-05-07T18:18:13;22.73;;;12.83;;
18592;SDS011;9426;54.118;17.948;2023-05-07T18:23:36;31.80;;;17.23;;
18592;SDS011;9426;54.118;17.948;2023-05-07T18:29:00;20.80;;;14.93;;
18592;SDS011;9426;54.118;17.948;2023-05-07T18:34:25;12.53;;;7.93;;
18592;SDS011;9426;54.118;17.948;2023-05-07T18:39:48;12.03;;;4.63;;
18592;SDS011;9426;54.118;17.948;2023-05-07T18:45:12;13.03;;;4.13;;
18592;SDS011;9426;54.118;17.948;2023-05-07T18:50:37;42.60;;;16.33;;
18592;SDS011;9426;54.118;17.948;2023-05-07T18:56:04;35.77;;;12.37;;
18592;SDS011;9426;54.118;17.948;2023-05-07T19:01:28;68.23;;;22.07;;
18592;SDS011;9426;54.118;17.948;2023-05-07T19:06:53;40.23;;;16.10;;
18592;SDS011;9426;54.118;17.948;2023-05-07T19:12:17;12.97;;;5.27;;
18592;SDS011;9426;54.118;17.948;2023-05-07T19:17:41;11.83;;;4.67;;
18592;SDS011;9426;54.118;17.948;2023-05-07T19:23:06;10.57;;;4.40;;
18592;SDS011;9426;54.118;17.948;2023-05-07T19:28:30;11.13;;;4.80;;
18592;SDS011;9426;54.118;17.948;2023-05-07T19:33:54;8.53;;;4.17;;
18592;SDS011;9426;54.118;17.948;2023-05-07T19:39:21;11.97;;;5.37;;
18592;SDS011;9426;54.118;17.948;2023-05-07T19:44:45;16.57;;;6.70;;
18592;SDS011;9426;54.118;17.948;2023-05-07T19:50:09;19.77;;;8.93;;
18592;SDS011;9426;54.118;17.948;2023-05-07T19:55:34;12.13;;;6.93;;
18592;SDS011;9426;54.118;17.948;2023-05-07T20:00:58;12.87;;;5.50;;
18592;SDS011;9426;54.118;17.948;2023-05-07T20:06:22;16.67;;;5.63;;
18592;SDS011;9426;54.118;17.948;2023-05-07T20:11:48;26.83;;;6.97;;
18592;SDS011;9426;54.118;17.948;2023-05-07T20:17:12;13.30;;;5.03;;
18592;SDS011;9426;54.118;17.948;2023-05-07T20:22:36;16.17;;;5.73;;
18592;SDS011;9426;54.118;17.948;2023-05-07T20:28:01;14.20;;;5.50;;
18592;SDS011;9426;54.118;17.948;2023-05-07T20:33:25;15.40;;;5.63;;
18592;SDS011;9426;54.118;17.948;2023-05-07T20:38:49;16.87;;;6.10;;
18592;SDS011;9426;54.118;17.948;2023-05-07T20:44:14;15.90;;;5.73;;
18592;SDS011;9426;54.118;17.948;2023-05-07T20:49:39;15.83;;;7.43;;
18592;SDS011;9426;54.118;17.948;2023-05-07T20:55:04;12.57;;;6.07;;
18592;SDS011;9426;54.118;17.948;2023-05-07T21:00:30;18.20;;;6.33;;
18592;SDS011;9426;54.118;17.948;2023-05-07T21:05:55;14.23;;;5.73;;
18592;SDS011;9426;54.118;17.948;2023-05-07T21:11:21;14.00;;;5.90;;
18592;SDS011;9426;54.118;17.948;2023-05-07T21:16:46;12.03;;;5.33;;
18592;SDS011;9426;54.118;17.948;2023-05-07T21:22:10;16.50;;;6.03;;
18592;SDS011;9426;54.118;17.948;2023-05-07T21:27:34;19.40;;;6.27;;
18592;SDS011;9426;54.118;17.948;2023-05-07T21:32:59;13.30;;;5.40;;
18592;SDS011;9426;54.118;17.948;2023-05-07T21:38:23;11.43;;;4.93;;
18592;SDS011;9426;54.118;17.948;2023-05-07T21:43:46;11.87;;;4.27;;
18592;SDS011;9426;54.118;17.948;2023-05-07T21:49:14;11.63;;;5.20;;
18592;SDS011;9426;54.118;17.948;2023-05-07T21:54:37;12.23;;;5.00;;
18592;SDS011;9426;54.118;17.948;2023-05-07T22:00:01;12.73;;;5.27;;
18592;SDS011;9426;54.118;17.948;2023-05-07T22:05:27;13.83;;;5.47;;
18592;SDS011;9426;54.118;17.948;2023-05-07T22:10:51;15.13;;;5.97;;
18592;SDS011;9426;54.118;17.948;2023-05-07T22:16:15;17.57;;;6.63;;
18592;SDS011;9426;54.118;17.948;2023-05-07T22:21:41;16.90;;;6.27;;
18592;SDS011;9426;54.118;17.948;2023-05-07T22:27:04;12.03;;;5.00;;
18592;SDS011;9426;54.118;17.948;2023-05-07T22:32:27;10.27;;;4.30;;
18592;SDS011;9426;54.118;17.948;2023-05-07T22:37:52;14.23;;;4.10;;
18592;SDS011;9426;54.118;17.948;2023-05-07T22:43:16;10.67;;;4.50;;
18592;SDS011;9426;54.118;17.948;2023-05-07T22:48:40;9.57;;;4.33;;
18592;SDS011;9426;54.118;17.948;2023-05-07T22:54:05;9.37;;;4.47;;
18592;SDS011;9426;54.118;17.948;2023-05-07T22:59:29;11.23;;;4.60;;
18592;SDS011;9426;54.118;17.948;2023-05-07T23:04:53;11.43;;;4.67;;
18592;SDS011;9426;54.118;17.948;2023-05-07T23:10:19;10.27;;;5.03;;
18592;SDS011;9426;54.118;17.948;2023-05-07T23:15:42;10.33;;;4.53;;
18592;SDS011;9426;54.118;17.948;2023-05-07T23:21:06;15.67;;;5.23;;
18592;SDS011;9426;54.118;17.948;2023-05-07T23:26:31;12.17;;;5.03;;
18592;SDS011;9426;54.118;17.948;2023-05-07T23:31:56;11.10;;;5.00;;
18592;SDS011;9426;54.118;17.948;2023-05-07T23:37:19;10.70;;;5.47;;
18592;SDS011;9426;54.118;17.948;2023-05-07T23:42:45;9.03;;;4.90;;
18592;SDS011;9426;54.118;17.948;2023-05-07T23:48:08;13.07;;;6.17;;
18592;SDS011;9426;54.118;17.948;2023-05-07T23:53:32;11.77;;;4.87;;
18592;SDS011;9426;54.118;17.948;2023-05-07T23:58:57;9.80;;;5.00;;
